createdAt,value
2019-05-29T00:00:18.282Z,61.10
2019-05-29T00:02:46.796Z,61.21
2019-05-29T00:05:18.556Z,61.32
2019-05-29T00:07:47.011Z,61.54
2019-05-29T00:10:15.511Z,62.13
2019-05-29T00:12:43.929Z,61.91
2019-05-29T00:15:12.529Z,62.46
2019-05-29T00:17:40.957Z,61.80
2019-05-29T00:20:10.480Z,62.26
2019-05-29T00:22:38.946Z,62.16
2019-05-29T00:25:08.540Z,62.82
2019-05-29T00:27:37.024Z,62.72
2019-05-29T00:30:06.930Z,62.58
2019-05-29T00:32:35.876Z,62.85
2019-05-29T00:35:08.282Z,62.98
2019-05-29T00:37:36.792Z,62.96
2019-05-29T00:40:06.925Z,62.88
2019-05-29T00:42:35.352Z,63.01
2019-05-29T00:45:07.282Z,62.93
2019-05-29T00:47:35.836Z,62.69
2019-05-29T00:50:06.411Z,62.16
2019-05-29T00:52:34.910Z,61.99
2019-05-29T00:55:03.861Z,62.61
2019-05-29T00:57:32.294Z,62.95
2019-05-29T01:00:00.791Z,62.40
2019-05-29T01:02:29.250Z,61.74
2019-05-29T01:04:57.669Z,62.69
2019-05-29T01:07:26.116Z,62.30
2019-05-29T01:09:54.550Z,61.87
2019-05-29T01:12:23.005Z,62.40
2019-05-29T01:14:51.409Z,62.16
2019-05-29T01:17:19.894Z,62.47
2019-05-29T01:19:48.295Z,61.85
2019-05-29T01:22:16.749Z,62.09
2019-05-29T01:24:45.175Z,62.67
2019-05-29T01:27:15.068Z,62.92
2019-05-29T01:29:43.703Z,62.67
2019-05-29T01:32:13.345Z,62.89
2019-05-29T01:34:41.849Z,62.74
2019-05-29T01:37:10.281Z,62.93
2019-05-29T01:39:38.693Z,62.51
2019-05-29T01:42:07.135Z,62.07
2019-05-29T01:44:35.573Z,62.46
2019-05-29T01:47:04.031Z,62.65
2019-05-29T01:49:32.448Z,62.13
2019-05-29T01:52:00.879Z,62.34
2019-05-29T01:54:29.299Z,61.49
2019-05-29T01:56:57.740Z,62.14
2019-05-29T01:59:26.181Z,62.31
2019-05-29T02:01:54.586Z,61.89
2019-05-29T02:04:24.078Z,62.16
2019-05-29T02:06:52.714Z,62.89
2019-05-29T02:09:22.113Z,63.33
2019-05-29T02:11:50.637Z,63.90
2019-05-29T02:14:19.059Z,63.51
2019-05-29T02:16:47.535Z,63.45
2019-05-29T02:19:15.979Z,62.88
2019-05-29T02:21:44.405Z,62.74
2019-05-29T02:24:12.819Z,63.11
2019-05-29T02:26:41.260Z,63.48
2019-05-29T02:29:09.718Z,62.67
2019-05-29T02:31:38.131Z,62.79
2019-05-29T02:34:07.476Z,63.73
2019-05-29T02:36:36.158Z,62.84
2019-05-29T02:39:06.878Z,63.26
2019-05-29T02:41:35.281Z,63.60
2019-05-29T02:44:04.456Z,64.47
2019-05-29T02:46:32.881Z,65.58
2019-05-29T02:49:01.347Z,66.19
2019-05-29T02:51:30.409Z,65.43
2019-05-29T02:53:58.954Z,65.09
2019-05-29T02:56:31.312Z,64.83
2019-05-29T02:58:59.833Z,64.39
2019-05-29T03:01:29.733Z,64.00
2019-05-29T03:03:58.382Z,64.18
2019-05-29T03:06:28.097Z,63.69
2019-05-29T03:08:56.669Z,63.49
2019-05-29T03:11:27.126Z,63.37
2019-05-29T03:13:55.478Z,62.34
2019-05-29T03:16:26.143Z,63.41
2019-05-29T03:18:54.205Z,63.63
2019-05-29T03:21:24.095Z,64.27
2019-05-29T03:23:52.637Z,64.63
2019-05-29T03:26:24.744Z,65.63
2019-05-29T03:28:51.201Z,66.93
2019-05-29T03:31:19.618Z,66.30
2019-05-29T03:33:50.273Z,65.25
2019-05-29T03:36:18.238Z,64.78
2019-05-29T03:38:46.661Z,64.63
2019-05-29T03:41:15.027Z,64.61
2019-05-29T03:43:43.459Z,64.19
2019-05-29T03:46:29.156Z,63.91
2019-05-29T03:48:42.056Z,64.50
2019-05-29T03:51:10.480Z,64.67
2019-05-29T03:53:38.908Z,64.49
2019-05-29T03:56:07.340Z,64.36
2019-05-29T03:58:37.492Z,64.33
2019-05-29T04:01:05.912Z,63.93
2019-05-29T04:03:35.631Z,63.13
2019-05-29T04:06:05.052Z,64.10
2019-05-29T04:08:34.154Z,63.62
2019-05-29T04:11:03.795Z,63.36
2019-05-29T04:13:33.870Z,63.12
2019-05-29T04:16:03.064Z,63.93
2019-05-29T04:18:35.807Z,63.99
2019-05-29T04:21:08.291Z,63.62
2019-05-29T04:23:38.307Z,63.74
2019-05-29T04:26:06.793Z,63.69
2019-05-29T04:28:36.862Z,64.81
2019-05-29T04:31:05.591Z,65.82
2019-05-29T04:33:34.899Z,66.18
2019-05-29T04:36:04.347Z,65.68
2019-05-29T04:38:33.848Z,65.40
2019-05-29T04:41:02.939Z,65.57
2019-05-29T04:43:33.262Z,65.12
2019-05-29T04:46:01.511Z,65.08
2019-05-29T04:48:31.450Z,64.22
2019-05-29T04:51:00.113Z,64.12
2019-05-29T04:53:29.435Z,65.07
2019-05-29T04:55:58.424Z,65.56
2019-05-29T04:58:26.867Z,65.62
2019-05-29T05:00:59.096Z,66.33
2019-05-29T05:03:25.444Z,67.16
2019-05-29T05:05:53.878Z,67.17
2019-05-29T05:08:22.294Z,67.08
2019-05-29T05:10:50.807Z,66.63
2019-05-29T05:13:19.794Z,66.38
2019-05-29T05:15:49.577Z,66.35
2019-05-29T05:18:18.087Z,65.78
2019-05-29T05:20:46.506Z,65.97
2019-05-29T05:23:15.090Z,65.61
2019-05-29T05:25:43.567Z,65.20
2019-05-29T05:28:12.023Z,65.14
2019-05-29T05:30:40.782Z,64.82
2019-05-29T05:33:09.361Z,64.76
2019-05-29T05:35:38.798Z,64.89
2019-05-29T05:38:07.282Z,64.80
2019-05-29T05:40:38.508Z,64.43
2019-05-29T05:43:05.905Z,64.11
2019-05-29T05:45:35.130Z,64.63
2019-05-29T05:48:03.657Z,64.26
2019-05-29T05:50:33.305Z,63.78
2019-05-29T05:53:01.965Z,63.89
2019-05-29T05:55:31.464Z,64.42
2019-05-29T05:57:59.990Z,64.04
2019-05-29T06:00:31.908Z,63.60
2019-05-29T06:03:00.650Z,63.89
2019-05-29T06:05:29.058Z,62.29
2019-05-29T06:07:57.631Z,62.91
2019-05-29T06:10:26.033Z,61.39
2019-05-29T06:12:54.516Z,62.51
2019-05-29T06:15:22.926Z,60.89
2019-05-29T06:18:10.103Z,61.33
2019-05-29T06:20:21.583Z,61.65
2019-05-29T06:22:50.038Z,61.96
2019-05-29T06:25:18.611Z,59.29
2019-05-29T06:27:47.034Z,60.15
2019-05-29T06:30:16.116Z,59.70
2019-05-29T06:32:44.543Z,59.55
2019-05-29T06:35:13.232Z,59.50
2019-05-29T06:37:41.813Z,58.42
2019-05-29T06:40:10.409Z,58.52
2019-05-29T06:42:39.848Z,59.41
2019-05-29T06:45:09.451Z,59.09
2019-05-29T06:47:38.579Z,56.59
2019-05-29T06:50:07.404Z,56.41
2019-05-29T06:52:35.835Z,56.33
2019-05-29T06:55:05.402Z,57.55
2019-05-29T06:57:33.810Z,58.45
2019-05-29T07:00:02.323Z,57.58
2019-05-29T07:02:31.833Z,55.55
2019-05-29T07:05:00.456Z,55.64
2019-05-29T07:07:28.867Z,57.14
2019-05-29T07:09:57.303Z,55.73
2019-05-29T07:12:25.735Z,55.21
2019-05-29T07:14:54.322Z,54.39
2019-05-29T07:17:22.737Z,52.86
2019-05-29T07:20:02.773Z,53.98
2019-05-29T07:22:21.306Z,53.84
2019-05-29T07:24:49.741Z,54.56
2019-05-29T07:27:18.218Z,53.84
2019-05-29T07:29:47.324Z,52.68
2019-05-29T07:32:15.855Z,53.70
2019-05-29T07:35:01.368Z,53.91
2019-05-29T07:37:14.431Z,53.74
2019-05-29T07:39:43.582Z,52.03
2019-05-29T07:42:12.058Z,51.78
2019-05-29T07:44:42.054Z,51.91
2019-05-29T07:47:10.627Z,53.98
2019-05-29T07:49:43.022Z,52.66
2019-05-29T07:52:09.289Z,51.51
2019-05-29T07:54:37.808Z,52.22
2019-05-29T07:57:06.281Z,52.50
2019-05-29T07:59:34.714Z,51.26
2019-05-29T08:02:03.155Z,50.54
2019-05-29T08:04:31.586Z,49.40
2019-05-29T08:06:59.996Z,51.17
2019-05-29T08:09:28.425Z,50.71
2019-05-29T08:11:56.930Z,50.02
2019-05-29T08:14:25.348Z,48.46
2019-05-29T08:16:53.849Z,48.21
2019-05-29T08:19:22.258Z,49.77
2019-05-29T08:21:50.754Z,50.37
2019-05-29T08:24:19.174Z,50.11
2019-05-29T08:26:48.917Z,48.55
2019-05-29T08:29:17.501Z,49.61
2019-05-29T08:31:46.846Z,46.10
2019-05-29T08:34:15.360Z,45.95
2019-05-29T08:36:59.999Z,45.33
2019-05-29T08:39:13.941Z,46.58
2019-05-29T08:41:52.664Z,45.37
2019-05-29T08:44:12.673Z,45.92
2019-05-29T08:46:41.710Z,44.91
2019-05-29T08:49:10.200Z,46.28
2019-05-29T08:51:38.673Z,45.96
2019-05-29T08:54:23.057Z,46.71
2019-05-29T08:56:37.368Z,45.76
2019-05-29T08:59:05.786Z,44.07
2019-05-29T09:01:34.247Z,44.69
2019-05-29T09:04:02.746Z,41.43
2019-05-29T09:06:31.185Z,42.33
2019-05-29T09:08:59.651Z,42.35
2019-05-29T09:11:28.093Z,40.35
2019-05-29T09:13:56.527Z,38.79
2019-05-29T09:16:24.937Z,41.10
2019-05-29T09:18:53.376Z,37.72
2019-05-29T09:21:22.877Z,38.27
2019-05-29T09:23:52.102Z,37.67
2019-05-29T09:26:23.918Z,38.14
2019-05-29T09:28:50.749Z,35.83
2019-05-29T09:31:20.249Z,38.57
2019-05-29T09:33:48.764Z,36.55
2019-05-29T09:36:18.639Z,38.24
2019-05-29T09:38:47.245Z,38.75
2019-05-29T09:41:16.199Z,38.79
2019-05-29T09:43:58.079Z,39.70
2019-05-29T09:46:17.108Z,39.94
2019-05-29T09:48:49.660Z,39.15
2019-05-29T09:53:44.882Z,38.12
2019-05-29T09:53:46.853Z,34.76
2019-05-29T09:56:15.336Z,37.60
2019-05-29T09:58:43.774Z,37.69
2019-05-29T10:01:23.037Z,37.88
2019-05-29T10:03:42.326Z,37.49
2019-05-29T10:06:12.391Z,38.15
2019-05-29T10:08:40.822Z,35.62
2019-05-29T10:11:10.940Z,36.77
2019-05-29T10:13:39.440Z,37.52
2019-05-29T10:16:07.976Z,36.87
2019-05-29T10:18:36.358Z,35.57
2019-05-29T10:21:05.232Z,35.34
2019-05-29T10:23:33.653Z,36.51
2019-05-29T10:26:03.386Z,35.11
2019-05-29T10:28:49.439Z,33.44
2019-05-29T10:31:04.008Z,32.61
2019-05-29T10:33:32.555Z,33.09
2019-05-29T10:36:04.043Z,33.40
2019-05-29T10:38:31.124Z,32.30
2019-05-29T10:41:06.260Z,28.90
2019-05-29T10:43:34.389Z,33.12
2019-05-29T10:45:59.908Z,32.25
2019-05-29T10:48:28.373Z,29.07
2019-05-29T10:50:56.788Z,31.49
2019-05-29T10:53:25.220Z,29.26
2019-05-29T10:55:54.919Z,26.61
2019-05-29T10:58:23.501Z,25.39
2019-05-29T11:00:53.210Z,22.11
2019-05-29T11:03:21.844Z,24.86
2019-05-29T11:05:51.538Z,20.28
2019-05-29T11:08:20.164Z,21.04
2019-05-29T11:10:48.620Z,19.37
2019-05-29T11:13:17.034Z,19.32
2019-05-29T11:15:46.501Z,17.25
2019-05-29T11:18:14.980Z,18.57
2019-05-29T11:20:43.412Z,19.45
2019-05-29T11:23:11.833Z,18.89
2019-05-29T11:25:40.646Z,17.54
2019-05-29T11:28:09.054Z,20.64
2019-05-29T11:30:37.518Z,22.31
2019-05-29T11:33:06.023Z,19.69
2019-05-29T11:35:34.440Z,19.28
2019-05-29T11:38:03.070Z,19.08
2019-05-29T11:40:31.746Z,20.07
2019-05-29T11:43:00.225Z,20.72
2019-05-29T11:45:28.721Z,18.85
2019-05-29T11:47:59.186Z,19.22
2019-05-29T11:50:27.451Z,17.09
2019-05-29T11:52:56.445Z,19.61
2019-05-29T11:55:24.984Z,17.90
2019-05-29T11:57:53.781Z,17.57
2019-05-29T12:00:22.649Z,20.33
2019-05-29T12:02:51.576Z,17.53
2019-05-29T12:05:20.422Z,19.32
2019-05-29T12:07:48.885Z,19.08
2019-05-29T12:10:17.846Z,18.21
2019-05-29T12:12:46.351Z,17.56
2019-05-29T12:15:17.898Z,18.89
2019-05-29T12:17:45.354Z,19.35
2019-05-29T12:20:27.029Z,19.81
2019-05-29T12:23:11.106Z,21.74
2019-05-29T12:25:17.462Z,21.65
2019-05-29T12:27:46.149Z,19.25
2019-05-29T12:30:15.007Z,21.69
2019-05-29T12:32:43.431Z,19.94
2019-05-29T12:35:14.036Z,22.84
2019-05-29T12:37:42.478Z,22.01
2019-05-29T12:40:11.432Z,22.38
2019-05-29T12:42:44.578Z,23.58
2019-05-29T12:45:11.262Z,23.63
2019-05-29T12:47:39.714Z,24.99
2019-05-29T12:50:10.870Z,22.59
2019-05-29T12:52:39.491Z,23.26
2019-05-29T12:55:10.159Z,26.22
2019-05-29T12:57:38.688Z,24.17
2019-05-29T13:00:09.645Z,24.51
2019-05-29T13:02:38.135Z,24.15
2019-05-29T13:05:16.322Z,26.46
2019-05-29T13:07:37.972Z,22.06
2019-05-29T13:10:08.899Z,23.27
2019-05-29T13:12:37.516Z,23.68
2019-05-29T13:15:10.712Z,24.69
2019-05-29T13:17:39.239Z,21.83
2019-05-29T13:20:21.155Z,25.53
2019-05-29T13:22:39.860Z,24.13
2019-05-29T13:25:12.043Z,22.53
2019-05-29T13:27:39.307Z,24.20
2019-05-29T13:30:10.155Z,23.09
2019-05-29T13:32:38.624Z,25.79
2019-05-29T13:35:07.489Z,23.90
2019-05-29T13:37:35.997Z,23.44
2019-05-29T13:40:08.687Z,25.07
2019-05-29T13:42:37.205Z,23.36
2019-05-29T13:45:16.800Z,27.25
2019-05-29T13:47:37.252Z,25.03
2019-05-29T13:50:12.052Z,26.08
2019-05-29T13:52:38.269Z,25.81
2019-05-29T13:55:08.332Z,29.58
2019-05-29T13:57:39.755Z,26.69
2019-05-29T14:00:30.231Z,26.54
2019-05-29T14:02:40.667Z,26.49
2019-05-29T14:05:10.253Z,25.75
2019-05-29T14:07:38.668Z,28.54
2019-05-29T14:10:09.230Z,29.26
2019-05-29T14:12:38.390Z,26.40
2019-05-29T14:15:08.685Z,26.13
2019-05-29T14:17:37.374Z,27.51
2019-05-29T14:20:08.952Z,27.23
2019-05-29T14:22:37.402Z,27.84
2019-05-29T14:25:07.628Z,28.54
2019-05-29T14:27:36.056Z,28.70
2019-05-29T14:30:08.397Z,32.91
2019-05-29T14:32:37.116Z,28.08
2019-05-29T14:35:10.767Z,26.61
2019-05-29T14:37:39.349Z,25.67
2019-05-29T14:40:09.729Z,26.11
2019-05-29T14:42:38.310Z,25.12
2019-05-29T14:45:08.401Z,27.84
2019-05-29T14:47:36.809Z,28.08
2019-05-29T14:50:09.233Z,27.29
2019-05-29T14:52:39.060Z,27.59
2019-05-29T14:55:08.987Z,27.00
2019-05-29T14:57:38.263Z,26.83
2019-05-29T15:00:20.646Z,28.45
2019-05-29T15:02:39.793Z,28.64
2019-05-29T15:05:09.725Z,28.71
2019-05-29T15:07:39.990Z,26.38
2019-05-29T15:10:23.957Z,26.94
2019-05-29T15:12:39.298Z,27.08
2019-05-29T15:15:11.040Z,32.30
2019-05-29T15:17:39.494Z,28.15
2019-05-29T15:20:10.403Z,27.26
2019-05-29T15:22:39.896Z,27.00
2019-05-29T15:25:18.427Z,27.40
2019-05-29T15:27:42.687Z,27.50
2019-05-29T15:30:14.757Z,25.84
2019-05-29T15:32:41.711Z,26.96
2019-05-29T15:35:14.506Z,26.60
2019-05-29T15:37:40.806Z,26.54
2019-05-29T15:40:12.724Z,27.70
2019-05-29T15:42:41.279Z,25.93
2019-05-29T15:45:12.212Z,25.66
2019-05-29T15:47:40.697Z,26.58
2019-05-29T15:50:11.370Z,27.82
2019-05-29T15:52:40.251Z,26.54
2019-05-29T15:55:21.184Z,28.58
2019-05-29T15:57:39.367Z,26.17
2019-05-29T16:00:11.192Z,27.70
2019-05-29T16:02:39.907Z,27.90
2019-05-29T16:05:09.182Z,26.43
2019-05-29T16:07:37.618Z,27.42
2019-05-29T16:10:08.243Z,28.52
2019-05-29T16:12:36.888Z,27.07
2019-05-29T16:15:08.935Z,26.17
2019-05-29T16:17:37.536Z,27.73
2019-05-29T16:20:10.336Z,25.33
2019-05-29T16:22:39.186Z,25.55
2019-05-29T16:25:08.338Z,25.19
2019-05-29T16:27:36.759Z,25.61
2019-05-29T16:30:09.201Z,28.10
2019-05-29T16:32:37.612Z,28.25
2019-05-29T16:35:07.865Z,26.79
2019-05-29T16:37:36.311Z,28.10
2019-05-29T16:40:14.157Z,27.57
2019-05-29T16:42:42.792Z,27.68
2019-05-29T16:45:12.551Z,26.21
2019-05-29T16:47:42.293Z,26.52
2019-05-29T16:50:13.044Z,25.96
2019-05-29T16:52:41.532Z,27.75
2019-05-29T16:55:10.598Z,25.86
2019-05-29T16:57:45.085Z,27.80
2019-05-29T17:00:13.737Z,26.71
2019-05-29T17:02:42.377Z,26.05
2019-05-29T17:05:11.578Z,25.91
2019-05-29T17:07:39.988Z,24.52
2019-05-29T17:10:09.383Z,25.49
2019-05-29T17:12:37.968Z,26.42
2019-05-29T17:15:09.467Z,26.01
2019-05-29T17:17:37.912Z,26.45
2019-05-29T17:20:09.696Z,26.14
2019-05-29T17:22:38.173Z,26.84
2019-05-29T17:25:07.152Z,26.87
2019-05-29T17:27:35.573Z,26.13
2019-05-29T17:30:05.592Z,28.81
2019-05-29T17:32:33.993Z,28.71
2019-05-29T17:35:02.519Z,28.94
2019-05-29T17:37:30.993Z,29.75
2019-05-29T17:39:59.424Z,28.10
2019-05-29T17:42:27.836Z,28.89
2019-05-29T17:44:56.290Z,28.60
2019-05-29T17:47:25.748Z,27.47
2019-05-29T17:49:54.227Z,28.39
2019-05-29T17:52:23.842Z,29.20
2019-05-29T17:54:52.493Z,28.16
2019-05-29T17:57:21.946Z,28.77
2019-05-29T17:59:50.524Z,28.25
2019-05-29T18:02:20.089Z,27.73
2019-05-29T18:04:48.667Z,28.42
2019-05-29T18:07:18.282Z,28.50
2019-05-29T18:09:47.012Z,29.34
2019-05-29T18:12:15.412Z,28.83
2019-05-29T18:14:43.880Z,29.85
2019-05-29T18:17:12.415Z,30.15
2019-05-29T18:19:40.962Z,31.30
2019-05-29T18:22:09.377Z,29.14
2019-05-29T18:24:37.792Z,30.69
2019-05-29T18:27:06.223Z,30.68
2019-05-29T18:29:34.644Z,30.20
2019-05-29T18:32:03.078Z,31.00
2019-05-29T18:34:34.686Z,29.76
2019-05-29T18:37:02.840Z,30.46
2019-05-29T18:39:32.486Z,28.98
2019-05-29T18:42:01.008Z,29.93
2019-05-29T18:44:29.491Z,31.83
2019-05-29T18:46:57.997Z,32.32
2019-05-29T18:49:26.520Z,32.16
2019-05-29T18:51:54.950Z,34.69
2019-05-29T18:54:23.719Z,33.25
2019-05-29T18:57:13.640Z,31.18
2019-05-29T18:59:23.265Z,33.52
2019-05-29T19:01:51.827Z,33.05
2019-05-29T19:04:21.417Z,34.68
2019-05-29T19:06:49.963Z,33.12
2019-05-29T19:09:18.559Z,34.21
2019-05-29T19:11:46.971Z,32.48
2019-05-29T19:14:15.407Z,32.38
2019-05-29T19:16:43.834Z,34.21
2019-05-29T19:19:12.359Z,36.72
2019-05-29T19:21:40.868Z,36.06
2019-05-29T19:24:10.993Z,37.05
2019-05-29T19:26:40.219Z,38.43
2019-05-29T19:29:08.753Z,36.52
2019-05-29T19:31:37.204Z,35.27
2019-05-29T19:34:05.719Z,37.17
2019-05-29T19:36:34.230Z,36.31
2019-05-29T19:39:02.644Z,35.22
2019-05-29T19:41:32.072Z,35.71
2019-05-29T19:44:00.690Z,37.66
2019-05-29T19:46:30.651Z,36.06
2019-05-29T19:48:59.621Z,37.03
2019-05-29T19:51:29.156Z,36.75
2019-05-29T19:53:57.696Z,37.33
2019-05-29T19:56:27.641Z,37.84
2019-05-29T19:58:56.216Z,39.52
2019-05-29T20:01:32.850Z,40.24
2019-05-29T20:03:54.786Z,41.06
2019-05-29T20:06:23.251Z,41.36
2019-05-29T20:08:51.633Z,37.90
2019-05-29T20:11:20.057Z,37.83
2019-05-29T20:13:48.477Z,39.41
2019-05-29T20:16:18.923Z,38.98
2019-05-29T20:18:47.319Z,38.58
2019-05-29T20:21:15.733Z,39.12
2019-05-29T20:23:44.157Z,39.59
2019-05-29T20:26:12.976Z,41.46
2019-05-29T20:28:42.519Z,40.88
2019-05-29T20:31:12.112Z,39.27
2019-05-29T20:33:40.939Z,40.59
2019-05-29T20:36:09.554Z,40.06
2019-05-29T20:38:39.222Z,40.19
2019-05-29T20:41:10.873Z,38.30
2019-05-29T20:43:39.772Z,38.29
2019-05-29T20:46:08.249Z,40.10
2019-05-29T20:48:36.723Z,39.03
2019-05-29T20:51:05.154Z,38.41
2019-05-29T20:53:33.656Z,39.47
2019-05-29T20:56:02.152Z,40.82
2019-05-29T20:58:31.631Z,40.23
2019-05-29T21:01:03.202Z,40.98
2019-05-29T21:03:30.229Z,41.77
2019-05-29T21:05:58.627Z,41.97
2019-05-29T21:08:27.056Z,41.60
2019-05-29T21:10:55.473Z,42.17
2019-05-29T21:13:23.915Z,42.72
2019-05-29T21:15:52.351Z,43.75
2019-05-29T21:18:20.772Z,43.47
2019-05-29T21:20:49.203Z,42.84
2019-05-29T21:23:17.655Z,43.15
2019-05-29T21:25:46.120Z,42.26
2019-05-29T21:28:14.564Z,41.72
2019-05-29T21:30:45.587Z,42.23
2019-05-29T21:33:14.109Z,40.20
2019-05-29T21:35:42.727Z,41.47
2019-05-29T21:38:11.128Z,40.98
2019-05-29T21:40:40.368Z,41.27
2019-05-29T21:43:08.950Z,42.80
2019-05-29T21:45:38.678Z,42.78
2019-05-29T21:48:07.134Z,43.45
2019-05-29T21:50:35.570Z,43.15
2019-05-29T21:53:04.077Z,42.38
2019-05-29T21:55:32.530Z,42.36
2019-05-29T21:58:00.974Z,43.81
2019-05-29T22:00:38.007Z,42.43
2019-05-29T22:03:06.778Z,40.91
2019-05-29T22:05:35.208Z,40.71
2019-05-29T22:08:03.699Z,39.83
2019-05-29T22:10:32.196Z,39.76
2019-05-29T22:13:01.375Z,40.47
2019-05-29T22:15:29.809Z,39.81
2019-05-29T22:17:59.215Z,40.15
2019-05-29T22:20:27.768Z,39.86
2019-05-29T22:22:57.180Z,39.71
2019-05-29T22:25:25.908Z,41.44
2019-05-29T22:27:55.597Z,40.41
2019-05-29T22:30:24.181Z,40.73
2019-05-29T22:32:53.266Z,39.72
2019-05-29T22:35:21.873Z,40.32
2019-05-29T22:37:51.444Z,39.97
2019-05-29T22:40:19.995Z,40.39
2019-05-29T22:42:48.452Z,41.28
2019-05-29T22:45:17.030Z,41.60
2019-05-29T22:47:45.483Z,42.90
2019-05-29T22:50:14.174Z,43.06
2019-05-29T22:52:42.620Z,42.97
2019-05-29T22:55:11.268Z,42.30
2019-05-29T22:57:39.700Z,42.42
2019-05-29T23:00:10.310Z,42.71
2019-05-29T23:02:38.742Z,43.17
2019-05-29T23:05:10.354Z,42.95
2019-05-29T23:07:38.875Z,42.89
2019-05-29T23:10:08.124Z,43.64
2019-05-29T23:12:36.539Z,43.73
2019-05-29T23:15:07.578Z,42.96
2019-05-29T23:17:36.063Z,44.27
2019-05-29T23:20:06.920Z,44.83
2019-05-29T23:22:35.352Z,45.74
2019-05-29T23:25:04.493Z,46.04
2019-05-29T23:27:32.951Z,46.27
2019-05-29T23:30:01.346Z,45.33
2019-05-29T23:32:29.770Z,46.56
2019-05-29T23:34:59.166Z,45.14
2019-05-29T23:37:27.721Z,45.51
2019-05-29T23:39:57.103Z,46.11
2019-05-29T23:42:25.637Z,44.42
2019-05-29T23:44:55.691Z,44.42
2019-05-29T23:47:24.235Z,45.50
2019-05-29T23:49:53.453Z,46.33
2019-05-29T23:52:21.941Z,45.00
2019-05-29T23:54:50.391Z,46.27
2019-05-29T23:57:18.826Z,45.12
2019-05-29T23:59:47.237Z,47.11
